This is the latest recevied weather packets stored in our database for station/object WX7FGZ-3. If no packets are shown the sender has not sent any weather packets the latest 10 day(s).
| Time | Temp. | Humidity | Pressure | Rain* | Wind** | Luminosity | Snow |
|---|---|---|---|---|---|---|---|
| 1777386060 | 5.56° C | 41% | 1016.4 hPa | 0 mm | - | - | - |
| 1777385759 | 5° C | 40% | 1016.3 hPa | 0 mm | - | - | - |
| 1777385460 | 4.44° C | 40% | 1016.3 hPa | 0 mm | - | - | - |
| 1777385159 | 4.44° C | 42% | 1016.2 hPa | 0 mm | - | - | - |
| 1777384859 | 3.33° C | 44% | 1016.2 hPa | 0 mm | - | - | - |
| 1777384558 | 2.78° C | 46% | 1016.2 hPa | 0 mm | - | - | - |
| 1777384258 | 1.67° C | 49% | 1016.4 hPa | 0 mm | - | - | - |
| 1777383958 | 0.56° C | 52% | 1016.4 hPa | 0 mm | - | - | - |
| 1777383657 | 0° C | 54% | 1016.3 hPa | 0 mm | - | - | - |
| 1777383357 | -1.11° C | 54% | 1016.2 hPa | 0 mm | - | - | - |
| 1777383057 | -1.11° C | 53% | 1016 hPa | 0 mm | - | - | - |
| 1777382456 | -1.67° C | 56% | 1015.9 hPa | 0 mm | - | - | - |
| 1777382156 | -2.22° C | 58% | 1015.8 hPa | 0 mm | - | - | - |
| 1777381856 | -2.22° C | 59% | 1015.8 hPa | 0 mm | - | - | - |
| 1777381255 | -2.78° C | 59% | 1015.4 hPa | 0 mm | - | - | - |
| 1777380956 | -2.78° C | 56% | 1015.3 hPa | 0 mm | - | - | - |
| 1777380054 | -2.78° C | 57% | 1015.2 hPa | 0 mm | - | - | - |
| 1777379754 | -3.33° C | 57% | 1015.2 hPa | 0 mm | - | - | - |
| 1777379454 | -3.33° C | 57% | 1015.2 hPa | 0 mm | - | - | - |
| 1777379153 | -3.33° C | 56% | 1015.1 hPa | 0 mm | - | - | - |
| 1777378853 | -3.33° C | 56% | 1015 hPa | 0 mm | - | - | - |
| 1777378553 | -3.33° C | 56% | 1014.8 hPa | 0 mm | - | - | - |
| 1777378253 | -3.89° C | 56% | 1014.7 hPa | 0 mm | - | - | - |
| 1777377952 | -3.89° C | 54% | 1014.6 hPa | 0 mm | - | - | - |
| 1777377652 | -3.33° C | 53% | 1014.5 hPa | 0 mm | - | - | - |
* Rain latest hour (hover to see other rain measurements)
** Current wind speed in m/s (hover to see current wind gust speed)